Terminal Aerodrome Forecast
Issued by NWS

Home | Current Version | Previous Version | Graphics & Text | Print | Product List | Glossary On
Versions: 1 2 3 4 5 6 7 8 9 10 11 12 13 14
385
FTUS43 KOAX 160535
TAFCDR
TAF
KCDR 160535Z 1606/1706 24005KT P6SM SKC
     FM161800 26014KT P6SM SKC
     FM170000 24006KT P6SM SKC=

USA.gov is the U.S. government's official web portal to all federal, state and local government web resources and services.